Time;durP1;ratioP1;P1;durP2;ratioP2;P2;SDS_P1;SDS_P2;PMS_P1;PMS_P2;Temp;Humidity;BMP_temperature;BMP_pressure;BME280_temperature;BME280_humidity;BME280_pressure;Samples;Min_cycle;Max_cycle;Signal;HPM_P1;HPM_P2
2021/07/29 00:01:54;;;;;;;;;;;25.10;68.20;;;;;;5125188;27;19924;-62
2021/07/29 00:04:21;;;;;;;;;;;25.10;68.20;;;;;;5136688;27;20053;-60
2021/07/29 00:06:48;;;;;;;;;;;25.10;68.20;;;;;;5129970;27;19923;-60
2021/07/29 00:09:15;;;;;;;;;;;25.10;68.20;;;;;;5122831;27;19930;-60
2021/07/29 00:11:42;;;;;;;;;;;25.10;68.20;;;;;;5134962;27;19969;-60
2021/07/29 00:14:09;;;;;;;;;;;25.10;68.10;;;;;;5135933;27;19923;-60
2021/07/29 00:16:48;;;;;;;;;;;25.10;68.10;;;;;;5135866;27;19932;-60
2021/07/29 00:19:15;;;;;;;;;;;25.10;68.20;;;;;;5136204;27;19939;-60
2021/07/29 00:21:42;;;;;;;;;;;25.00;68.20;;;;;;5133658;27;19924;-60
2021/07/29 00:24:10;;;;;;;;;;;25.00;68.20;;;;;;5134753;27;19970;-60
2021/07/29 00:26:39;;;;;;;;;;;25.00;68.10;;;;;;5134517;27;19971;-60
2021/07/29 00:29:06;;;;;;;;;;;25.00;68.20;;;;;;5135342;27;19923;-60
2021/07/29 00:31:34;;;;;;;;;;;25.00;68.20;;;;;;5134785;27;19970;-60
2021/07/29 00:34:02;;;;;;;;;;;25.00;68.00;;;;;;5134631;27;19988;-61
2021/07/29 00:36:31;;;;;;;;;;;25.00;68.10;;;;;;5123157;27;19923;-59
2021/07/29 00:38:58;;;;;;;;;;;25.00;68.00;;;;;;5117746;27;19953;-60
2021/07/29 00:41:25;;;;;;;;;;;25.00;68.10;;;;;;5135488;27;19935;-60
2021/07/29 00:44:03;;;;;;;;;;;25.00;68.00;;;;;;5134072;27;20486;-60
2021/07/29 00:46:30;;;;;;;;;;;25.00;67.90;;;;;;5119395;27;19971;-60
2021/07/29 00:48:58;;;;;;;;;;;25.00;67.90;;;;;;5118382;27;20340;-60
2021/07/29 00:51:25;;;;;;;;;;;25.00;67.80;;;;;;5130783;27;19923;-60
2021/07/29 00:53:52;;;;;;;;;;;25.00;67.90;;;;;;5122787;27;19924;-60
2021/07/29 00:56:19;;;;;;;;;;;25.00;67.80;;;;;;5129792;27;19963;-60
2021/07/29 00:58:46;;;;;;;;;;;25.00;67.80;;;;;;5135131;27;20023;-60
2021/07/29 01:01:13;;;;;;;;;;;25.00;67.80;;;;;;5124663;27;20348;-61
2021/07/29 01:03:41;;;;;;;;;;;24.90;67.90;;;;;;5125951;27;20336;-60
2021/07/29 01:06:07;;;;;;;;;;;24.90;67.80;;;;;;5132362;27;19980;-60
2021/07/29 01:09:10;;;;;;;;;;;25.00;67.80;;;;;;5114484;27;19924;-60
2021/07/29 01:11:37;;;;;;;;;;;25.00;67.80;;;;;;5049422;28;19971;-60
2021/07/29 01:14:05;;;;;;;;;;;25.00;67.70;;;;;;5049326;28;19947;-61
2021/07/29 01:16:32;;;;;;;;;;;24.90;67.70;;;;;;5031649;28;20033;-60
2021/07/29 01:19:00;;;;;;;;;;;24.90;67.70;;;;;;5049972;28;19979;-60
2021/07/29 01:21:47;;;;;;;;;;;24.90;67.80;;;;;;5048241;28;19948;-60
2021/07/29 01:24:14;;;;;;;;;;;24.90;67.80;;;;;;5047786;28;20020;-60
2021/07/29 01:26:41;;;;;;;;;;;24.90;67.80;;;;;;5051299;28;20400;-59
2021/07/29 01:29:08;;;;;;;;;;;24.90;67.70;;;;;;5049790;28;20338;-60
2021/07/29 01:31:36;;;;;;;;;;;24.90;67.80;;;;;;5047621;28;20003;-60
2021/07/29 01:34:05;;;;;;;;;;;24.90;67.80;;;;;;5048574;28;19947;-60
2021/07/29 01:36:32;;;;;;;;;;;24.90;68.40;;;;;;5044737;28;20429;-60
2021/07/29 01:38:59;;;;;;;;;;;24.90;67.80;;;;;;5034650;28;20331;-60
2021/07/29 01:41:27;;;;;;;;;;;24.90;67.80;;;;;;5051191;28;20023;-60
2021/07/29 01:43:54;;;;;;;;;;;24.90;67.70;;;;;;5047551;28;20367;-60
2021/07/29 01:46:21;;;;;;;;;;;24.80;67.60;;;;;;5062755;27;20023;-60
2021/07/29 01:48:50;;;;;;;;;;;24.90;67.80;;;;;;5134120;27;19931;-60
2021/07/29 01:51:18;;;;;;;;;;;24.90;67.80;;;;;;5115408;27;19969;-60
2021/07/29 01:53:45;;;;;;;;;;;24.90;67.70;;;;;;5133474;27;19923;-60
2021/07/29 01:56:12;;;;;;;;;;;24.80;67.60;;;;;;5133900;27;20022;-59
2021/07/29 01:58:39;;;;;;;;;;;24.80;67.60;;;;;;5116340;27;20443;-61
2021/07/29 02:01:06;;;;;;;;;;;24.80;67.70;;;;;;5113515;27;20415;-60
2021/07/29 02:03:36;;;;;;;;;;;24.80;67.60;;;;;;5133197;27;20014;-60
2021/07/29 02:06:03;;;;;;;;;;;24.80;67.60;;;;;;5132693;27;19953;-60
2021/07/29 02:08:29;;;;;;;;;;;24.80;67.50;;;;;;5133043;27;20243;-60
2021/07/29 02:11:03;;;;;;;;;;;24.80;67.60;;;;;;5134035;27;20013;-60
2021/07/29 02:13:30;;;;;;;;;;;24.80;67.60;;;;;;5133968;27;19923;-60
2021/07/29 02:15:57;;;;;;;;;;;24.80;67.60;;;;;;5134014;27;19972;-60
2021/07/29 02:18:24;;;;;;;;;;;24.80;67.60;;;;;;5132095;27;19930;-60
2021/07/29 02:20:51;;;;;;;;;;;24.80;67.50;;;;;;5132673;27;19923;-60
2021/07/29 02:23:17;;;;;;;;;;;24.80;67.50;;;;;;5132674;27;20002;-60
2021/07/29 02:25:44;;;;;;;;;;;24.80;67.60;;;;;;5123507;27;19967;-61
2021/07/29 02:28:12;;;;;;;;;;;24.80;67.60;;;;;;5125019;27;20007;-60
2021/07/29 02:30:39;;;;;;;;;;;24.80;67.50;;;;;;5133534;27;19923;-60
2021/07/29 02:33:05;;;;;;;;;;;24.80;67.50;;;;;;5132374;27;19930;-60
2021/07/29 02:35:33;;;;;;;;;;;24.80;67.50;;;;;;5127481;27;19978;-60
2021/07/29 02:38:00;;;;;;;;;;;24.70;67.40;;;;;;5118305;28;19923;-60
2021/07/29 02:40:27;;;;;;;;;;;24.70;67.40;;;;;;5132101;28;19924;-60
2021/07/29 02:42:54;;;;;;;;;;;24.70;67.50;;;;;;5132548;28;19989;-60
2021/07/29 02:45:21;;;;;;;;;;;24.70;67.40;;;;;;5133279;28;19924;-60
2021/07/29 02:47:48;;;;;;;;;;;24.70;67.40;;;;;;5114443;28;19923;-60
2021/07/29 02:50:15;;;;;;;;;;;24.70;67.40;;;;;;5133051;28;19927;-60
2021/07/29 02:52:42;;;;;;;;;;;24.70;67.50;;;;;;5132003;28;19930;-60
2021/07/29 02:55:09;;;;;;;;;;;24.70;67.50;;;;;;5131135;28;19959;-60
2021/07/29 02:57:36;;;;;;;;;;;24.70;67.50;;;;;;5133473;28;19927;-60
2021/07/29 03:00:03;;;;;;;;;;;24.70;67.50;;;;;;5133331;28;19998;-60
2021/07/29 03:02:30;;;;;;;;;;;24.70;67.40;;;;;;5131858;28;20003;-60
2021/07/29 03:04:57;;;;;;;;;;;24.70;67.40;;;;;;5132028;28;19923;-60
2021/07/29 03:07:26;;;;;;;;;;;24.70;67.40;;;;;;5131770;28;19972;-61
2021/07/29 03:09:54;;;;;;;;;;;24.70;67.30;;;;;;5135218;27;19923;-60
2021/07/29 03:12:21;;;;;;;;;;;24.70;67.50;;;;;;5136052;27;19923;-60
2021/07/29 03:14:47;;;;;;;;;;;24.70;67.40;;;;;;5135987;27;19927;-60
2021/07/29 03:17:14;;;;;;;;;;;24.70;67.30;;;;;;5137044;27;20333;-60
2021/07/29 03:19:41;;;;;;;;;;;24.70;67.20;;;;;;5136974;27;19962;-60
2021/07/29 03:22:08;;;;;;;;;;;24.70;67.20;;;;;;5137072;27;20371;-61
2021/07/29 03:24:35;;;;;;;;;;;24.70;67.10;;;;;;5136886;27;19928;-60
2021/07/29 03:27:02;;;;;;;;;;;24.70;67.10;;;;;;5130445;27;20011;-60
2021/07/29 03:29:29;;;;;;;;;;;24.70;67.10;;;;;;5118683;27;20031;-61
2021/07/29 03:31:56;;;;;;;;;;;24.70;67.10;;;;;;5123367;27;19927;-61
2021/07/29 03:34:23;;;;;;;;;;;24.70;67.00;;;;;;5133309;27;19923;-60
2021/07/29 03:36:50;;;;;;;;;;;24.70;67.00;;;;;;5102474;27;19965;-60
2021/07/29 03:39:17;;;;;;;;;;;24.70;67.00;;;;;;5135653;27;19966;-60
2021/07/29 03:41:44;;;;;;;;;;;24.70;67.00;;;;;;5136573;27;19923;-60
2021/07/29 03:44:11;;;;;;;;;;;24.70;67.00;;;;;;5136157;27;20018;-59
2021/07/29 03:46:38;;;;;;;;;;;24.70;67.10;;;;;;5117333;27;20006;-60
2021/07/29 03:49:06;;;;;;;;;;;24.70;67.10;;;;;;5135497;27;19931;-61
2021/07/29 03:51:33;;;;;;;;;;;24.70;67.00;;;;;;5136114;27;19982;-60
2021/07/29 03:54:00;;;;;;;;;;;24.70;67.00;;;;;;5135727;27;19930;-60
2021/07/29 03:56:27;;;;;;;;;;;24.70;67.10;;;;;;5136063;27;19935;-61
2021/07/29 03:58:53;;;;;;;;;;;24.70;67.00;;;;;;5136152;27;20018;-60
2021/07/29 04:01:21;;;;;;;;;;;24.70;66.90;;;;;;5134118;27;19924;-60
2021/07/29 04:03:48;;;;;;;;;;;24.70;66.90;;;;;;5135268;27;19928;-60
2021/07/29 04:06:16;;;;;;;;;;;24.70;66.90;;;;;;5134804;27;19974;-60
2021/07/29 04:08:43;;;;;;;;;;;24.70;66.90;;;;;;5135039;27;20041;-60
2021/07/29 04:11:10;;;;;;;;;;;24.70;66.80;;;;;;5136149;27;20370;-60
2021/07/29 04:13:37;;;;;;;;;;;24.70;66.60;;;;;;5134793;27;20014;-60
2021/07/29 04:16:04;;;;;;;;;;;24.70;66.60;;;;;;5116939;27;20320;-60
2021/07/29 04:18:32;;;;;;;;;;;24.80;66.80;;;;;;5134451;27;20014;-60
2021/07/29 04:20:59;;;;;;;;;;;24.80;67.40;;;;;;5127677;27;19975;-59
2021/07/29 04:23:26;;;;;;;;;;;24.80;66.50;;;;;;5107416;27;19972;-60
2021/07/29 04:25:53;;;;;;;;;;;24.70;66.50;;;;;;5129614;27;19923;-60
2021/07/29 04:28:20;;;;;;;;;;;24.70;66.50;;;;;;5121402;27;20333;-60
2021/07/29 04:30:47;;;;;;;;;;;24.70;66.50;;;;;;5134844;27;19984;-60
2021/07/29 04:33:15;;;;;;;;;;;24.70;66.60;;;;;;5134500;27;19968;-60
2021/07/29 04:35:42;;;;;;;;;;;24.80;66.80;;;;;;5133494;27;19947;-60
2021/07/29 04:38:08;;;;;;;;;;;24.80;66.70;;;;;;5134080;27;19976;-60
2021/07/29 04:40:35;;;;;;;;;;;24.80;66.40;;;;;;5134282;27;20337;-60
2021/07/29 04:43:02;;;;;;;;;;;24.90;66.40;;;;;;5115256;27;19973;-60
2021/07/29 04:45:29;;;;;;;;;;;24.90;66.30;;;;;;5135908;27;20014;-60
2021/07/29 04:47:56;;;;;;;;;;;24.90;66.30;;;;;;5117572;27;19924;-60
2021/07/29 04:50:24;;;;;;;;;;;24.90;66.00;;;;;;5134372;27;19972;-60
2021/07/29 04:52:52;;;;;;;;;;;24.90;66.80;;;;;;5134878;27;19977;-59
2021/07/29 04:55:20;;;;;;;;;;;24.90;66.00;;;;;;5133414;27;19924;-59
2021/07/29 04:57:47;;;;;;;;;;;24.90;66.00;;;;;;5134105;27;19955;-59
2021/07/29 05:00:14;;;;;;;;;;;25.00;66.10;;;;;;5135202;27;19927;-60
2021/07/29 05:02:41;;;;;;;;;;;25.00;66.10;;;;;;5135079;27;19930;-60
2021/07/29 05:05:09;;;;;;;;;;;25.00;66.00;;;;;;5134086;27;20264;-59
2021/07/29 05:07:36;;;;;;;;;;;25.00;65.80;;;;;;5133958;27;19972;-59
2021/07/29 05:10:03;;;;;;;;;;;25.10;65.90;;;;;;5134153;27;20034;-59
2021/07/29 05:12:30;;;;;;;;;;;25.10;65.90;;;;;;5135244;27;20039;-60
2021/07/29 05:14:57;;;;;;;;;;;25.20;66.00;;;;;;5134838;27;19980;-59
2021/07/29 05:17:24;;;;;;;;;;;25.20;65.70;;;;;;5126900;27;20440;-60
2021/07/29 05:19:51;;;;;;;;;;;25.20;65.60;;;;;;5122224;27;19953;-60
2021/07/29 05:22:18;;;;;;;;;;;25.30;65.50;;;;;;5134680;27;19973;-60
2021/07/29 05:24:45;;;;;;;;;;;25.30;65.40;;;;;;5134865;27;20006;-60
2021/07/29 05:27:12;;;;;;;;;;;25.30;65.30;;;;;;5134407;27;19924;-59
2021/07/29 05:29:38;;;;;;;;;;;25.30;65.10;;;;;;5132076;27;20006;-59
2021/07/29 05:32:06;;;;;;;;;;;25.40;65.30;;;;;;5131950;27;20352;-59
2021/07/29 05:34:33;;;;;;;;;;;25.40;65.10;;;;;;5133814;27;19924;-59
2021/07/29 05:37:00;;;;;;;;;;;25.40;65.00;;;;;;5118134;27;19969;-59
2021/07/29 05:39:28;;;;;;;;;;;25.40;64.90;;;;;;5134558;27;20379;-59
2021/07/29 05:41:55;;;;;;;;;;;25.50;64.90;;;;;;5133134;27;20363;-60
2021/07/29 05:44:22;;;;;;;;;;;25.50;64.90;;;;;;5116049;27;19977;-60
2021/07/29 05:46:49;;;;;;;;;;;25.50;64.80;;;;;;5132904;27;19923;-60
2021/07/29 05:49:16;;;;;;;;;;;25.50;64.70;;;;;;5116509;27;20380;-59
2021/07/29 05:51:42;;;;;;;;;;;25.60;64.70;;;;;;5117213;27;19927;-59
2021/07/29 05:54:09;;;;;;;;;;;25.60;64.70;;;;;;5126902;27;20383;-59
2021/07/29 05:56:37;;;;;;;;;;;25.60;64.70;;;;;;5133954;27;19923;-60
2021/07/29 05:59:03;;;;;;;;;;;25.60;64.70;;;;;;5131701;27;19972;-59
2021/07/29 06:01:30;;;;;;;;;;;25.60;64.60;;;;;;5134045;27;19978;-59
2021/07/29 06:03:58;;;;;;;;;;;25.60;64.50;;;;;;5131252;27;19973;-59
2021/07/29 06:06:25;;;;;;;;;;;25.60;64.50;;;;;;5134188;27;19924;-59
2021/07/29 06:08:57;;;;;;;;;;;25.60;64.50;;;;;;5132685;27;19972;-61
2021/07/29 06:11:25;;;;;;;;;;;25.60;64.40;;;;;;5132380;27;19929;-59
2021/07/29 06:13:52;;;;;;;;;;;25.70;64.40;;;;;;5132217;27;19930;-59
2021/07/29 06:16:19;;;;;;;;;;;25.70;64.40;;;;;;5131288;27;20317;-59
2021/07/29 06:19:03;;;;;;;;;;;25.70;65.20;;;;;;5133869;27;20371;-59
2021/07/29 06:21:31;;;;;;;;;;;25.70;64.30;;;;;;5132985;27;19969;-59
2021/07/29 06:23:58;;;;;;;;;;;25.70;64.40;;;;;;5132647;27;19927;-59
2021/07/29 06:26:25;;;;;;;;;;;25.70;64.30;;;;;;5132378;27;19923;-60
2021/07/29 06:28:52;;;;;;;;;;;25.70;64.30;;;;;;5131964;27;19923;-60
2021/07/29 06:31:19;;;;;;;;;;;25.70;64.30;;;;;;5131128;27;19924;-59
2021/07/29 06:33:46;;;;;;;;;;;25.70;64.40;;;;;;5133407;27;19930;-60
2021/07/29 06:36:13;;;;;;;;;;;25.70;64.30;;;;;;5126196;27;19935;-59
2021/07/29 06:38:40;;;;;;;;;;;25.70;64.30;;;;;;5131836;28;19924;-59
2021/07/29 06:41:07;;;;;;;;;;;25.70;64.30;;;;;;5131939;28;19953;-60
2021/07/29 06:43:35;;;;;;;;;;;25.70;64.30;;;;;;5133695;27;20375;-60
2021/07/29 06:46:02;;;;;;;;;;;25.70;64.30;;;;;;5137512;27;19972;-59
2021/07/29 06:48:29;;;;;;;;;;;25.80;64.30;;;;;;5119704;27;20006;-60
2021/07/29 06:51:00;;;;;;;;;;;25.80;64.40;;;;;;5134671;27;19976;-59
2021/07/29 06:53:27;;;;;;;;;;;25.80;64.20;;;;;;5137750;27;19955;-60
2021/07/29 06:55:54;;;;;;;;;;;25.80;64.20;;;;;;5136393;27;19978;-60
2021/07/29 06:58:21;;;;;;;;;;;25.80;65.10;;;;;;5137714;27;19923;-59
2021/07/29 07:00:48;;;;;;;;;;;25.80;64.20;;;;;;5134711;27;19977;-60
2021/07/29 07:03:15;;;;;;;;;;;25.80;64.20;;;;;;5137488;27;19996;-59
2021/07/29 07:05:45;;;;;;;;;;;25.80;64.20;;;;;;5136570;27;20354;-59
2021/07/29 07:08:13;;;;;;;;;;;25.80;64.30;;;;;;5135767;27;20006;-59
2021/07/29 07:10:40;;;;;;;;;;;25.80;64.30;;;;;;5136056;27;19938;-59
2021/07/29 07:13:07;;;;;;;;;;;25.80;64.30;;;;;;5134847;27;20312;-60
2021/07/29 07:15:34;;;;;;;;;;;25.80;64.30;;;;;;5136227;27;20332;-60
2021/07/29 07:18:01;;;;;;;;;;;25.90;64.40;;;;;;5136105;27;20362;-59
2021/07/29 07:20:28;;;;;;;;;;;25.90;64.20;;;;;;5134430;27;20306;-59
2021/07/29 07:22:55;;;;;;;;;;;25.90;64.20;;;;;;5136170;27;19965;-59
2021/07/29 07:25:22;;;;;;;;;;;25.90;64.20;;;;;;5136851;27;19973;-59
2021/07/29 07:27:49;;;;;;;;;;;25.90;64.20;;;;;;5136665;27;19964;-60
2021/07/29 07:30:16;;;;;;;;;;;25.90;64.20;;;;;;5134532;27;19970;-60
2021/07/29 07:32:43;;;;;;;;;;;25.90;64.20;;;;;;5135440;27;20399;-59
2021/07/29 07:35:10;;;;;;;;;;;25.90;64.10;;;;;;5136392;27;19970;-59
2021/07/29 07:37:39;;;;;;;;;;;26.00;64.20;;;;;;5117503;27;20014;-59
2021/07/29 07:40:07;;;;;;;;;;;26.00;64.20;;;;;;5135245;27;20014;-61
2021/07/29 07:42:34;;;;;;;;;;;26.00;64.30;;;;;;5135959;27;19966;-59
2021/07/29 07:45:01;;;;;;;;;;;26.00;64.30;;;;;;5136525;27;20682;-59
2021/07/29 07:47:29;;;;;;;;;;;26.00;64.40;;;;;;5136430;27;19945;-60
2021/07/29 07:49:56;;;;;;;;;;;26.00;64.20;;;;;;5133998;27;19984;-59
2021/07/29 07:52:22;;;;;;;;;;;26.00;64.30;;;;;;5135010;27;20032;-59
2021/07/29 07:54:49;;;;;;;;;;;26.10;64.40;;;;;;5136048;27;20010;-60
2021/07/29 07:57:16;;;;;;;;;;;26.00;64.30;;;;;;5134251;27;20375;-60
2021/07/29 07:59:43;;;;;;;;;;;26.10;64.40;;;;;;5133737;27;19976;-59
2021/07/29 08:02:11;;;;;;;;;;;26.10;64.40;;;;;;5135234;27;19923;-59
2021/07/29 08:04:38;;;;;;;;;;;26.10;64.40;;;;;;5134669;27;19928;-60
2021/07/29 08:07:05;;;;;;;;;;;26.10;64.40;;;;;;5134676;27;19927;-59
2021/07/29 08:09:32;;;;;;;;;;;26.20;64.40;;;;;;5133995;27;19969;-60
2021/07/29 08:11:59;;;;;;;;;;;26.20;64.40;;;;;;5134606;27;20406;-60
2021/07/29 08:14:26;;;;;;;;;;;26.20;64.50;;;;;;5134871;27;20349;-60
2021/07/29 08:16:53;;;;;;;;;;;26.20;64.30;;;;;;5133233;27;19972;-60
2021/07/29 08:19:20;;;;;;;;;;;26.20;64.40;;;;;;5136144;27;19924;-59
2021/07/29 08:21:47;;;;;;;;;;;26.20;64.40;;;;;;5135961;27;20390;-60
2021/07/29 08:24:14;;;;;;;;;;;26.20;64.20;;;;;;5134837;27;20002;-60
2021/07/29 08:26:41;;;;;;;;;;;26.20;64.10;;;;;;5134319;27;19924;-60
2021/07/29 08:29:08;;;;;;;;;;;26.20;63.90;;;;;;5134650;27;19931;-59
2021/07/29 08:31:35;;;;;;;;;;;26.30;64.00;;;;;;5118407;27;19927;-59
2021/07/29 08:34:02;;;;;;;;;;;26.30;63.80;;;;;;5116178;27;19993;-60
2021/07/29 08:36:29;;;;;;;;;;;26.30;63.60;;;;;;5123811;27;19975;-59
2021/07/29 08:38:56;;;;;;;;;;;26.30;64.00;;;;;;5135902;27;20002;-59
2021/07/29 08:41:23;;;;;;;;;;;26.30;63.90;;;;;;5116275;27;19931;-60
2021/07/29 08:43:50;;;;;;;;;;;26.30;64.00;;;;;;5134522;27;19962;-60
2021/07/29 08:46:20;;;;;;;;;;;26.30;64.00;;;;;;5134293;27;20006;-59
2021/07/29 08:48:48;;;;;;;;;;;26.30;63.70;;;;;;5130914;27;19924;-59
2021/07/29 08:51:23;;;;;;;;;;;26.40;63.70;;;;;;5132849;27;19945;-59
2021/07/29 08:53:52;;;;;;;;;;;26.40;63.70;;;;;;5134195;27;20395;-60
2021/07/29 08:56:28;;;;;;;;;;;26.40;63.60;;;;;;5132319;27;19924;-59
2021/07/29 08:58:55;;;;;;;;;;;26.40;63.70;;;;;;5133867;27;20432;-61
2021/07/29 09:01:38;;;;;;;;;;;26.40;63.60;;;;;;5133608;27;20328;-60
2021/07/29 09:04:15;;;;;;;;;;;26.40;63.50;;;;;;5133934;27;19965;-59
2021/07/29 09:06:54;;;;;;;;;;;26.40;63.30;;;;;;5134031;27;20010;-60
2021/07/29 09:09:48;;;;;;;;;;;26.40;63.40;;;;;;5133155;27;19965;-59
2021/07/29 09:12:19;;;;;;;;;;;26.50;63.60;;;;;;5133825;27;19968;-59
2021/07/29 09:14:47;;;;;;;;;;;26.50;63.40;;;;;;5133855;27;20022;-59
2021/07/29 09:17:15;;;;;;;;;;;26.50;63.70;;;;;;5134272;27;19968;-59
2021/07/29 09:19:43;;;;;;;;;;;26.50;63.70;;;;;;5133018;27;20018;-59
2021/07/29 09:22:11;;;;;;;;;;;26.60;63.20;;;;;;5119014;27;19959;-59
2021/07/29 09:24:57;;;;;;;;;;;26.50;63.10;;;;;;5117771;27;19967;-60
2021/07/29 09:27:24;;;;;;;;;;;26.60;63.10;;;;;;5131349;27;19932;-59
2021/07/29 09:29:51;;;;;;;;;;;26.60;63.30;;;;;;5134228;27;19931;-60
2021/07/29 09:32:20;;;;;;;;;;;26.60;63.10;;;;;;5134502;27;20367;-60
2021/07/29 09:34:48;;;;;;;;;;;26.60;63.30;;;;;;5132681;27;19965;-60
2021/07/29 09:37:16;;;;;;;;;;;26.60;63.40;;;;;;5128793;27;19929;-61
2021/07/29 09:39:43;;;;;;;;;;;26.60;63.40;;;;;;5133199;27;19923;-59
2021/07/29 09:42:21;;;;;;;;;;;26.60;63.30;;;;;;5132815;27;19978;-59
2021/07/29 09:44:52;;;;;;;;;;;26.70;63.30;;;;;;5114581;27;19934;-60
2021/07/29 09:47:20;;;;;;;;;;;26.60;63.50;;;;;;5132756;27;19970;-60
2021/07/29 09:49:48;;;;;;;;;;;26.70;63.30;;;;;;5132912;27;20345;-60
2021/07/29 09:52:15;;;;;;;;;;;26.70;63.30;;;;;;5132649;27;19923;-59
2021/07/29 09:54:44;;;;;;;;;;;26.70;63.20;;;;;;5132448;27;19923;-60
2021/07/29 09:57:11;;;;;;;;;;;26.70;63.30;;;;;;5132681;27;20340;-60
2021/07/29 09:59:38;;;;;;;;;;;26.70;63.30;;;;;;5133893;27;19987;-60
2021/07/29 10:02:06;;;;;;;;;;;26.70;63.30;;;;;;5134081;27;19996;-60
2021/07/29 10:04:37;;;;;;;;;;;26.70;63.30;;;;;;5115793;27;19923;-60
2021/07/29 10:07:06;;;;;;;;;;;26.70;62.90;;;;;;5133773;27;19984;-60
2021/07/29 10:09:38;;;;;;;;;;;26.70;62.90;;;;;;5133062;27;19924;-60
2021/07/29 10:12:06;;;;;;;;;;;26.80;63.00;;;;;;5131253;27;19975;-60
2021/07/29 10:14:53;;;;;;;;;;;26.80;62.70;;;;;;5132878;27;19923;-60
2021/07/29 10:17:35;;;;;;;;;;;26.80;62.60;;;;;;5115547;27;19945;-60
2021/07/29 10:20:15;;;;;;;;;;;26.80;62.60;;;;;;5131555;27;19977;-59
2021/07/29 10:22:43;;;;;;;;;;;26.80;62.70;;;;;;5133954;27;19976;-59
2021/07/29 10:25:10;;;;;;;;;;;26.90;62.90;;;;;;5129459;27;19923;-60
2021/07/29 10:27:37;;;;;;;;;;;26.90;62.90;;;;;;5120226;27;19927;-62
2021/07/29 10:30:20;;;;;;;;;;;26.90;63.00;;;;;;5131628;27;19924;-59
2021/07/29 10:32:51;;;;;;;;;;;26.90;62.90;;;;;;5132380;27;19923;-60
2021/07/29 10:35:27;;;;;;;;;;;26.90;62.80;;;;;;5127527;27;19955;-60
2021/07/29 10:37:55;;;;;;;;;;;26.90;62.70;;;;;;5120578;28;20006;-60
2021/07/29 10:40:34;;;;;;;;;;;26.90;62.70;;;;;;5132061;28;19973;-59
2021/07/29 10:43:20;;;;;;;;;;;26.90;63.10;;;;;;5132285;28;19930;-59
2021/07/29 10:45:49;;;;;;;;;;;26.90;62.10;;;;;;5132257;28;19924;-60
2021/07/29 10:48:34;;;;;;;;;;;27.00;62.00;;;;;;5131882;28;19924;-60
2021/07/29 10:51:17;;;;;;;;;;;27.00;62.00;;;;;;5131794;28;19973;-59
2021/07/29 10:53:45;;;;;;;;;;;27.00;61.80;;;;;;5115234;28;19976;-60
2021/07/29 10:56:22;;;;;;;;;;;27.00;61.90;;;;;;5130676;28;20336;-60
2021/07/29 10:58:50;;;;;;;;;;;27.00;61.80;;;;;;5131889;28;19963;-59
2021/07/29 11:01:18;;;;;;;;;;;27.00;62.10;;;;;;5133250;28;19923;-58
2021/07/29 11:03:47;;;;;;;;;;;27.10;62.30;;;;;;5110027;28;20004;-59
2021/07/29 11:06:24;;;;;;;;;;;27.10;62.40;;;;;;5119675;28;20325;-60
2021/07/29 11:08:51;;;;;;;;;;;27.10;62.40;;;;;;5128190;28;20015;-59
2021/07/29 11:11:19;;;;;;;;;;;27.10;62.00;;;;;;5120601;28;19923;-59
2021/07/29 11:13:46;;;;;;;;;;;27.10;61.70;;;;;;5133173;28;19924;-59
2021/07/29 11:16:14;;;;;;;;;;;27.10;61.80;;;;;;5131634;28;19970;-59
2021/07/29 11:18:41;;;;;;;;;;;27.10;61.80;;;;;;5130989;28;20336;-59
2021/07/29 11:21:11;;;;;;;;;;;27.10;61.70;;;;;;5131572;28;19927;-59
2021/07/29 11:23:39;;;;;;;;;;;27.10;61.80;;;;;;5131798;28;19946;-60
2021/07/29 11:26:06;;;;;;;;;;;27.10;61.70;;;;;;5115145;28;20000;-59
2021/07/29 11:28:33;;;;;;;;;;;27.10;61.90;;;;;;5132234;28;19972;-60
2021/07/29 11:31:18;;;;;;;;;;;27.10;62.00;;;;;;5136218;27;19923;-59
2021/07/29 11:33:49;;;;;;;;;;;27.00;61.90;;;;;;5137160;27;19977;-60
2021/07/29 11:36:16;;;;;;;;;;;27.10;61.80;;;;;;5134947;27;19923;-59
2021/07/29 11:38:44;;;;;;;;;;;27.10;61.70;;;;;;5137253;27;19972;-59
2021/07/29 11:41:11;;;;;;;;;;;27.10;61.70;;;;;;5137272;27;19925;-59
2021/07/29 11:43:37;;;;;;;;;;;27.10;61.40;;;;;;5135564;27;19923;-59
2021/07/29 11:46:06;;;;;;;;;;;27.10;61.00;;;;;;5136779;27;19999;-59
2021/07/29 11:48:33;;;;;;;;;;;27.10;61.10;;;;;;5136666;27;19930;-59
2021/07/29 11:51:00;;;;;;;;;;;27.10;60.90;;;;;;5134724;27;20371;-58
2021/07/29 11:53:37;;;;;;;;;;;27.10;60.90;;;;;;5136257;27;19923;-60
2021/07/29 11:56:05;;;;;;;;;;;27.10;61.00;;;;;;5136173;27;19930;-59
2021/07/29 11:58:32;;;;;;;;;;;27.10;60.70;;;;;;5136164;27;20022;-59
2021/07/29 12:00:59;;;;;;;;;;;27.20;60.80;;;;;;5134918;27;20018;-59
2021/07/29 12:03:31;;;;;;;;;;;27.10;60.70;;;;;;5134713;27;19963;-60
2021/07/29 12:05:58;;;;;;;;;;;27.20;60.60;;;;;;5117083;27;19929;-59
2021/07/29 12:08:26;;;;;;;;;;;27.20;60.50;;;;;;5125146;27;19953;-60
2021/07/29 12:10:54;;;;;;;;;;;27.20;60.50;;;;;;5125954;27;20404;-59
2021/07/29 12:13:23;;;;;;;;;;;27.20;60.30;;;;;;5117963;27;19970;-59
2021/07/29 12:15:51;;;;;;;;;;;27.20;60.00;;;;;;5134840;27;19923;-60
2021/07/29 12:18:18;;;;;;;;;;;27.20;59.70;;;;;;5135008;27;20363;-59
2021/07/29 12:20:47;;;;;;;;;;;27.20;59.70;;;;;;5134503;27;20367;-59
2021/07/29 12:23:19;;;;;;;;;;;27.20;59.80;;;;;;5136117;27;19968;-59
2021/07/29 12:25:46;;;;;;;;;;;27.20;59.40;;;;;;5136003;27;20038;-59
2021/07/29 12:28:13;;;;;;;;;;;27.20;60.10;;;;;;5116351;27;20358;-59
2021/07/29 12:30:42;;;;;;;;;;;27.20;59.70;;;;;;5135691;27;19945;-59
2021/07/29 12:33:10;;;;;;;;;;;27.20;59.80;;;;;;5116650;27;20010;-60
2021/07/29 12:35:41;;;;;;;;;;;27.20;59.90;;;;;;5133405;27;19923;-60
2021/07/29 12:38:09;;;;;;;;;;;27.20;59.60;;;;;;5135836;27;20320;-60
2021/07/29 12:40:36;;;;;;;;;;;27.20;59.10;;;;;;5135511;27;19924;-59
2021/07/29 12:43:19;;;;;;;;;;;27.20;59.40;;;;;;5134608;27;19945;-59
2021/07/29 12:45:47;;;;;;;;;;;27.20;59.60;;;;;;5115793;27;20432;-60
2021/07/29 12:48:14;;;;;;;;;;;27.20;59.90;;;;;;5115766;27;19924;-59
2021/07/29 12:50:41;;;;;;;;;;;27.30;59.70;;;;;;5133965;27;19931;-59
2021/07/29 12:53:12;;;;;;;;;;;27.30;60.00;;;;;;5133862;27;19934;-59
2021/07/29 12:55:39;;;;;;;;;;;27.30;59.40;;;;;;5134686;27;19939;-60
2021/07/29 12:58:07;;;;;;;;;;;27.30;59.60;;;;;;5134054;27;20010;-59
2021/07/29 13:00:41;;;;;;;;;;;27.30;59.80;;;;;;5133927;27;20424;-59
2021/07/29 13:03:34;;;;;;;;;;;27.30;59.20;;;;;;5118489;27;19928;-60
2021/07/29 13:06:03;;;;;;;;;;;27.30;59.20;;;;;;5132068;27;21353;-59
2021/07/29 13:08:35;;;;;;;;;;;27.30;59.10;;;;;;5134042;27;19969;-59
2021/07/29 13:11:02;;;;;;;;;;;27.30;59.10;;;;;;5135261;27;20378;-60
2021/07/29 13:13:31;;;;;;;;;;;27.30;59.10;;;;;;5135059;27;20442;-59
2021/07/29 13:15:58;;;;;;;;;;;27.40;59.20;;;;;;5135091;27;19924;-60
2021/07/29 13:18:26;;;;;;;;;;;27.40;58.60;;;;;;5134696;27;19924;-59
2021/07/29 13:20:53;;;;;;;;;;;27.40;59.00;;;;;;5120245;27;19971;-60
2021/07/29 13:23:20;;;;;;;;;;;27.40;58.70;;;;;;5097087;27;20002;-60
2021/07/29 13:25:48;;;;;;;;;;;27.40;58.80;;;;;;5133339;27;19968;-60
2021/07/29 13:28:15;;;;;;;;;;;27.40;58.80;;;;;;5122688;27;19928;-60
2021/07/29 13:30:45;;;;;;;;;;;27.40;59.00;;;;;;5128797;27;19931;-60
2021/07/29 13:33:13;;;;;;;;;;;27.30;58.90;;;;;;5134785;27;19923;-60
2021/07/29 13:35:40;;;;;;;;;;;27.40;59.00;;;;;;5128213;27;20306;-60
2021/07/29 13:38:07;;;;;;;;;;;27.40;59.30;;;;;;5126090;27;19977;-60
2021/07/29 13:40:35;;;;;;;;;;;27.30;58.80;;;;;;5132939;27;19976;-59
2021/07/29 13:43:02;;;;;;;;;;;27.30;59.00;;;;;;5132464;27;19923;-59
2021/07/29 13:45:29;;;;;;;;;;;27.30;59.30;;;;;;5131591;27;19995;-60
2021/07/29 13:47:58;;;;;;;;;;;27.40;58.70;;;;;;5132494;27;20010;-60
2021/07/29 13:50:29;;;;;;;;;;;27.40;59.10;;;;;;5132993;27;20374;-60
2021/07/29 13:52:58;;;;;;;;;;;27.30;59.30;;;;;;5133994;27;19927;-60
2021/07/29 13:55:26;;;;;;;;;;;27.30;59.20;;;;;;5132839;27;19924;-60
2021/07/29 13:57:53;;;;;;;;;;;27.30;59.10;;;;;;5131543;27;20436;-60
2021/07/29 14:00:20;;;;;;;;;;;27.30;59.20;;;;;;5132413;27;19973;-59
2021/07/29 14:02:47;;;;;;;;;;;27.30;59.30;;;;;;5132764;27;19924;-59
2021/07/29 14:05:17;;;;;;;;;;;27.30;59.10;;;;;;5116455;27;19931;-59
2021/07/29 14:07:44;;;;;;;;;;;27.40;59.40;;;;;;5134185;27;19927;-59
2021/07/29 14:10:12;;;;;;;;;;;27.30;59.20;;;;;;5134048;27;19928;-59
2021/07/29 14:12:40;;;;;;;;;;;27.40;59.30;;;;;;5134449;27;20328;-61
2021/07/29 14:15:08;;;;;;;;;;;27.40;59.40;;;;;;5116613;27;19973;-61
2021/07/29 14:20:16;;;;;;;;;;;27.30;59.40;;;;;;5132943;27;20348;-61
2021/07/29 14:25:23;;;;;;;;;;;27.40;58.90;;;;;;5132700;27;20327;-60
2021/07/29 14:27:50;;;;;;;;;;;27.40;59.30;;;;;;5133383;27;19973;-60
2021/07/29 14:30:18;;;;;;;;;;;27.50;59.40;;;;;;5100374;28;20015;-60